sensor_id;sensor_type;location;lat;lon;timestamp;P1;durP1;ratioP1;P2;durP2;ratioP2
21593;SDS011;10959;51.328;7.322;2023-03-13T00:01:34;14.77;;;3.93;;
21593;SDS011;10959;51.328;7.322;2023-03-13T00:04:02;17.10;;;4.03;;
21593;SDS011;10959;51.328;7.322;2023-03-13T00:06:31;13.53;;;4.07;;
21593;SDS011;10959;51.328;7.322;2023-03-13T00:08:59;14.03;;;3.93;;
21593;SDS011;10959;51.328;7.322;2023-03-13T00:11:26;13.50;;;3.70;;
21593;SDS011;10959;51.328;7.322;2023-03-13T00:13:53;12.33;;;3.53;;
21593;SDS011;10959;51.328;7.322;2023-03-13T00:16:20;16.53;;;3.73;;
21593;SDS011;10959;51.328;7.322;2023-03-13T00:18:47;12.10;;;4.37;;
21593;SDS011;10959;51.328;7.322;2023-03-13T00:21:15;13.47;;;3.30;;
21593;SDS011;10959;51.328;7.322;2023-03-13T00:23:44;11.63;;;3.80;;
21593;SDS011;10959;51.328;7.322;2023-03-13T00:26:12;15.00;;;3.50;;
21593;SDS011;10959;51.328;7.322;2023-03-13T00:28:40;15.57;;;3.50;;
21593;SDS011;10959;51.328;7.322;2023-03-13T00:31:08;10.27;;;3.03;;
21593;SDS011;10959;51.328;7.322;2023-03-13T00:33:37;11.03;;;3.37;;
21593;SDS011;10959;51.328;7.322;2023-03-13T00:36:05;10.27;;;3.40;;
21593;SDS011;10959;51.328;7.322;2023-03-13T00:38:33;13.00;;;3.83;;
21593;SDS011;10959;51.328;7.322;2023-03-13T00:41:02;15.03;;;4.57;;
21593;SDS011;10959;51.328;7.322;2023-03-13T00:43:30;10.13;;;3.33;;
21593;SDS011;10959;51.328;7.322;2023-03-13T00:45:57;13.40;;;3.33;;
21593;SDS011;10959;51.328;7.322;2023-03-13T00:48:24;13.93;;;3.83;;
21593;SDS011;10959;51.328;7.322;2023-03-13T00:50:51;14.33;;;3.37;;
21593;SDS011;10959;51.328;7.322;2023-03-13T00:53:17;12.60;;;3.50;;
21593;SDS011;10959;51.328;7.322;2023-03-13T00:55:51;12.67;;;3.70;;
21593;SDS011;10959;51.328;7.322;2023-03-13T00:58:20;12.90;;;3.60;;
21593;SDS011;10959;51.328;7.322;2023-03-13T01:00:47;13.03;;;3.33;;
21593;SDS011;10959;51.328;7.322;2023-03-13T01:03:14;10.67;;;3.57;;
21593;SDS011;10959;51.328;7.322;2023-03-13T01:05:40;10.70;;;3.80;;
21593;SDS011;10959;51.328;7.322;2023-03-13T01:08:07;12.17;;;3.10;;
21593;SDS011;10959;51.328;7.322;2023-03-13T01:10:33;11.10;;;3.40;;
21593;SDS011;10959;51.328;7.322;2023-03-13T01:13:00;11.97;;;3.47;;
21593;SDS011;10959;51.328;7.322;2023-03-13T01:15:30;12.30;;;3.67;;
21593;SDS011;10959;51.328;7.322;2023-03-13T01:17:59;11.30;;;2.93;;
21593;SDS011;10959;51.328;7.322;2023-03-13T01:20:25;9.97;;;3.10;;
21593;SDS011;10959;51.328;7.322;2023-03-13T01:22:51;17.00;;;4.00;;
21593;SDS011;10959;51.328;7.322;2023-03-13T01:25:18;13.50;;;3.53;;
21593;SDS011;10959;51.328;7.322;2023-03-13T01:27:44;9.83;;;3.13;;
21593;SDS011;10959;51.328;7.322;2023-03-13T01:30:11;11.87;;;3.40;;
21593;SDS011;10959;51.328;7.322;2023-03-13T01:32:39;8.93;;;2.77;;
21593;SDS011;10959;51.328;7.322;2023-03-13T01:35:05;15.00;;;3.30;;
21593;SDS011;10959;51.328;7.322;2023-03-13T01:37:32;14.27;;;3.63;;
21593;SDS011;10959;51.328;7.322;2023-03-13T01:39:59;16.00;;;3.80;;
21593;SDS011;10959;51.328;7.322;2023-03-13T01:42:25;16.43;;;4.10;;
21593;SDS011;10959;51.328;7.322;2023-03-13T01:44:52;16.87;;;4.23;;
21593;SDS011;10959;51.328;7.322;2023-03-13T01:47:20;11.63;;;3.40;;
21593;SDS011;10959;51.328;7.322;2023-03-13T01:49:47;12.37;;;3.60;;
21593;SDS011;10959;51.328;7.322;2023-03-13T01:52:17;11.87;;;3.03;;
21593;SDS011;10959;51.328;7.322;2023-03-13T01:54:48;12.10;;;3.33;;
21593;SDS011;10959;51.328;7.322;2023-03-13T01:57:20;15.37;;;3.60;;
21593;SDS011;10959;51.328;7.322;2023-03-13T01:59:51;10.77;;;3.40;;
21593;SDS011;10959;51.328;7.322;2023-03-13T02:02:22;11.13;;;3.20;;
21593;SDS011;10959;51.328;7.322;2023-03-13T02:04:51;11.50;;;3.40;;
21593;SDS011;10959;51.328;7.322;2023-03-13T02:07:23;14.93;;;3.50;;
21593;SDS011;10959;51.328;7.322;2023-03-13T02:09:54;14.27;;;4.10;;
21593;SDS011;10959;51.328;7.322;2023-03-13T02:12:23;12.53;;;3.50;;
21593;SDS011;10959;51.328;7.322;2023-03-13T02:14:54;17.17;;;3.77;;
21593;SDS011;10959;51.328;7.322;2023-03-13T02:17:23;11.37;;;3.33;;
21593;SDS011;10959;51.328;7.322;2023-03-13T02:19:52;11.07;;;3.23;;
21593;SDS011;10959;51.328;7.322;2023-03-13T02:22:21;12.40;;;3.47;;
21593;SDS011;10959;51.328;7.322;2023-03-13T02:24:55;9.83;;;3.40;;
21593;SDS011;10959;51.328;7.322;2023-03-13T02:27:26;21.63;;;3.47;;
21593;SDS011;10959;51.328;7.322;2023-03-13T02:29:53;12.80;;;3.80;;
21593;SDS011;10959;51.328;7.322;2023-03-13T02:32:19;11.33;;;3.77;;
21593;SDS011;10959;51.328;7.322;2023-03-13T02:34:47;9.47;;;3.20;;
21593;SDS011;10959;51.328;7.322;2023-03-13T02:37:16;12.93;;;3.47;;
21593;SDS011;10959;51.328;7.322;2023-03-13T02:39:45;14.33;;;3.73;;
21593;SDS011;10959;51.328;7.322;2023-03-13T02:42:15;15.60;;;3.97;;
21593;SDS011;10959;51.328;7.322;2023-03-13T02:44:45;10.37;;;3.10;;
21593;SDS011;10959;51.328;7.322;2023-03-13T02:47:16;13.57;;;3.57;;
21593;SDS011;10959;51.328;7.322;2023-03-13T02:49:43;16.03;;;3.37;;
21593;SDS011;10959;51.328;7.322;2023-03-13T02:52:10;15.43;;;3.47;;
21593;SDS011;10959;51.328;7.322;2023-03-13T02:54:43;11.73;;;3.17;;
21593;SDS011;10959;51.328;7.322;2023-03-13T02:57:12;8.10;;;3.00;;
21593;SDS011;10959;51.328;7.322;2023-03-13T02:59:38;9.93;;;2.93;;
21593;SDS011;10959;51.328;7.322;2023-03-13T03:02:06;10.87;;;3.60;;
21593;SDS011;10959;51.328;7.322;2023-03-13T03:04:33;13.87;;;4.03;;
21593;SDS011;10959;51.328;7.322;2023-03-13T03:06:59;10.10;;;3.10;;
21593;SDS011;10959;51.328;7.322;2023-03-13T03:09:26;12.10;;;2.90;;
21593;SDS011;10959;51.328;7.322;2023-03-13T03:11:52;10.03;;;3.40;;
21593;SDS011;10959;51.328;7.322;2023-03-13T03:14:18;12.53;;;3.20;;
21593;SDS011;10959;51.328;7.322;2023-03-13T03:16:45;18.00;;;3.57;;
21593;SDS011;10959;51.328;7.322;2023-03-13T03:19:13;7.70;;;2.83;;
21593;SDS011;10959;51.328;7.322;2023-03-13T03:21:39;9.57;;;3.17;;
21593;SDS011;10959;51.328;7.322;2023-03-13T03:24:06;10.83;;;3.17;;
21593;SDS011;10959;51.328;7.322;2023-03-13T03:26:34;11.43;;;3.40;;
21593;SDS011;10959;51.328;7.322;2023-03-13T03:29:00;13.07;;;3.30;;
21593;SDS011;10959;51.328;7.322;2023-03-13T03:31:27;7.60;;;2.90;;
21593;SDS011;10959;51.328;7.322;2023-03-13T03:33:55;6.07;;;2.60;;
21593;SDS011;10959;51.328;7.322;2023-03-13T03:36:23;7.50;;;3.40;;
21593;SDS011;10959;51.328;7.322;2023-03-13T03:38:49;10.30;;;3.43;;
21593;SDS011;10959;51.328;7.322;2023-03-13T03:41:17;7.20;;;2.60;;
21593;SDS011;10959;51.328;7.322;2023-03-13T03:43:44;5.47;;;2.03;;
21593;SDS011;10959;51.328;7.322;2023-03-13T03:46:12;8.40;;;2.43;;
21593;SDS011;10959;51.328;7.322;2023-03-13T03:48:38;7.00;;;2.30;;
21593;SDS011;10959;51.328;7.322;2023-03-13T03:51:05;6.70;;;2.37;;
21593;SDS011;10959;51.328;7.322;2023-03-13T03:53:34;5.70;;;2.37;;
21593;SDS011;10959;51.328;7.322;2023-03-13T03:56:00;10.03;;;2.90;;
21593;SDS011;10959;51.328;7.322;2023-03-13T03:58:27;6.40;;;2.10;;
21593;SDS011;10959;51.328;7.322;2023-03-13T04:00:55;4.40;;;1.90;;
21593;SDS011;10959;51.328;7.322;2023-03-13T04:03:22;5.23;;;1.90;;
21593;SDS011;10959;51.328;7.322;2023-03-13T04:05:49;7.30;;;2.37;;
21593;SDS011;10959;51.328;7.322;2023-03-13T04:08:16;5.63;;;2.10;;
21593;SDS011;10959;51.328;7.322;2023-03-13T04:10:44;5.73;;;2.20;;
21593;SDS011;10959;51.328;7.322;2023-03-13T04:13:11;6.60;;;1.80;;
21593;SDS011;10959;51.328;7.322;2023-03-13T04:15:37;6.70;;;2.07;;
21593;SDS011;10959;51.328;7.322;2023-03-13T04:18:04;4.30;;;1.60;;
21593;SDS011;10959;51.328;7.322;2023-03-13T04:20:31;4.73;;;2.00;;
21593;SDS011;10959;51.328;7.322;2023-03-13T04:22:57;7.53;;;2.00;;
21593;SDS011;10959;51.328;7.322;2023-03-13T04:25:24;4.57;;;1.70;;
21593;SDS011;10959;51.328;7.322;2023-03-13T04:27:52;3.80;;;1.50;;
21593;SDS011;10959;51.328;7.322;2023-03-13T04:30:18;5.53;;;1.60;;
21593;SDS011;10959;51.328;7.322;2023-03-13T04:32:45;2.97;;;1.40;;
21593;SDS011;10959;51.328;7.322;2023-03-13T04:35:11;3.77;;;1.53;;
21593;SDS011;10959;51.328;7.322;2023-03-13T04:37:38;4.23;;;1.37;;
21593;SDS011;10959;51.328;7.322;2023-03-13T04:40:05;2.70;;;1.10;;
21593;SDS011;10959;51.328;7.322;2023-03-13T04:42:33;1.80;;;1.27;;
21593;SDS011;10959;51.328;7.322;2023-03-13T04:45:01;3.10;;;1.40;;
21593;SDS011;10959;51.328;7.322;2023-03-13T04:47:27;3.37;;;1.50;;
21593;SDS011;10959;51.328;7.322;2023-03-13T04:49:54;3.13;;;1.60;;
21593;SDS011;10959;51.328;7.322;2023-03-13T04:52:20;2.40;;;1.20;;
21593;SDS011;10959;51.328;7.322;2023-03-13T04:54:46;2.40;;;1.27;;
21593;SDS011;10959;51.328;7.322;2023-03-13T04:57:15;2.27;;;1.50;;
21593;SDS011;10959;51.328;7.322;2023-03-13T04:59:41;3.70;;;1.50;;
21593;SDS011;10959;51.328;7.322;2023-03-13T05:02:09;3.07;;;1.47;;
21593;SDS011;10959;51.328;7.322;2023-03-13T05:04:37;3.67;;;1.57;;
21593;SDS011;10959;51.328;7.322;2023-03-13T05:07:03;4.33;;;1.40;;
21593;SDS011;10959;51.328;7.322;2023-03-13T05:09:30;2.57;;;1.20;;
21593;SDS011;10959;51.328;7.322;2023-03-13T05:11:56;3.63;;;1.40;;
21593;SDS011;10959;51.328;7.322;2023-03-13T05:14:23;3.43;;;0.90;;
21593;SDS011;10959;51.328;7.322;2023-03-13T05:16:49;4.17;;;1.17;;
21593;SDS011;10959;51.328;7.322;2023-03-13T05:19:17;2.70;;;1.23;;
21593;SDS011;10959;51.328;7.322;2023-03-13T05:21:44;2.93;;;1.10;;
21593;SDS011;10959;51.328;7.322;2023-03-13T05:24:10;1.90;;;1.00;;
21593;SDS011;10959;51.328;7.322;2023-03-13T05:26:37;2.30;;;1.13;;
21593;SDS011;10959;51.328;7.322;2023-03-13T05:29:03;2.50;;;1.07;;
21593;SDS011;10959;51.328;7.322;2023-03-13T05:31:29;2.03;;;1.20;;
21593;SDS011;10959;51.328;7.322;2023-03-13T05:33:56;2.13;;;1.03;;
21593;SDS011;10959;51.328;7.322;2023-03-13T05:36:24;1.17;;;0.90;;
21593;SDS011;10959;51.328;7.322;2023-03-13T05:38:50;1.77;;;1.00;;
21593;SDS011;10959;51.328;7.322;2023-03-13T05:41:17;2.93;;;1.47;;
21593;SDS011;10959;51.328;7.322;2023-03-13T05:43:43;2.00;;;1.20;;
21593;SDS011;10959;51.328;7.322;2023-03-13T05:46:09;1.53;;;1.33;;
21593;SDS011;10959;51.328;7.322;2023-03-13T05:48:36;1.30;;;1.10;;
21593;SDS011;10959;51.328;7.322;2023-03-13T05:51:02;1.60;;;1.30;;
21593;SDS011;10959;51.328;7.322;2023-03-13T05:53:30;1.87;;;1.43;;
21593;SDS011;10959;51.328;7.322;2023-03-13T05:55:57;2.83;;;1.87;;
21593;SDS011;10959;51.328;7.322;2023-03-13T05:58:23;2.10;;;1.90;;
21593;SDS011;10959;51.328;7.322;2023-03-13T06:00:50;2.63;;;1.80;;
21593;SDS011;10959;51.328;7.322;2023-03-13T06:03:16;2.30;;;1.93;;
21593;SDS011;10959;51.328;7.322;2023-03-13T06:05:42;2.13;;;1.73;;
21593;SDS011;10959;51.328;7.322;2023-03-13T06:08:09;2.80;;;2.20;;
21593;SDS011;10959;51.328;7.322;2023-03-13T06:10:37;2.47;;;2.03;;
21593;SDS011;10959;51.328;7.322;2023-03-13T06:13:03;2.00;;;1.70;;
21593;SDS011;10959;51.328;7.322;2023-03-13T06:15:29;2.50;;;1.53;;
21593;SDS011;10959;51.328;7.322;2023-03-13T06:17:56;2.10;;;1.90;;
21593;SDS011;10959;51.328;7.322;2023-03-13T06:20:23;1.83;;;1.10;;
21593;SDS011;10959;51.328;7.322;2023-03-13T06:22:49;1.63;;;1.23;;
21593;SDS011;10959;51.328;7.322;2023-03-13T06:25:16;1.40;;;1.13;;
21593;SDS011;10959;51.328;7.322;2023-03-13T06:27:44;1.13;;;1.00;;
21593;SDS011;10959;51.328;7.322;2023-03-13T06:30:11;2.23;;;1.20;;
21593;SDS011;10959;51.328;7.322;2023-03-13T06:32:37;1.80;;;1.40;;
21593;SDS011;10959;51.328;7.322;2023-03-13T06:35:04;2.43;;;1.40;;
21593;SDS011;10959;51.328;7.322;2023-03-13T06:37:31;1.73;;;1.30;;
21593;SDS011;10959;51.328;7.322;2023-03-13T06:39:58;2.23;;;1.27;;
21593;SDS011;10959;51.328;7.322;2023-03-13T06:42:25;2.77;;;1.70;;
21593;SDS011;10959;51.328;7.322;2023-03-13T06:44:52;3.47;;;1.50;;
21593;SDS011;10959;51.328;7.322;2023-03-13T06:47:19;2.53;;;1.50;;
21593;SDS011;10959;51.328;7.322;2023-03-13T06:49:45;3.87;;;1.70;;
21593;SDS011;10959;51.328;7.322;2023-03-13T06:52:12;1.90;;;1.70;;
21593;SDS011;10959;51.328;7.322;2023-03-13T06:54:38;2.07;;;1.70;;
21593;SDS011;10959;51.328;7.322;2023-03-13T06:57:08;2.13;;;1.93;;
21593;SDS011;10959;51.328;7.322;2023-03-13T06:59:34;3.50;;;1.87;;
21593;SDS011;10959;51.328;7.322;2023-03-13T07:02:02;2.13;;;1.33;;
21593;SDS011;10959;51.328;7.322;2023-03-13T07:04:28;1.87;;;1.60;;
21593;SDS011;10959;51.328;7.322;2023-03-13T07:06:55;1.63;;;1.43;;
21593;SDS011;10959;51.328;7.322;2023-03-13T07:09:21;2.00;;;1.50;;
21593;SDS011;10959;51.328;7.322;2023-03-13T07:11:48;1.67;;;1.47;;
21593;SDS011;10959;51.328;7.322;2023-03-13T07:14:14;1.90;;;1.30;;
21593;SDS011;10959;51.328;7.322;2023-03-13T07:16:41;2.20;;;1.30;;
21593;SDS011;10959;51.328;7.322;2023-03-13T07:19:08;2.50;;;1.43;;
21593;SDS011;10959;51.328;7.322;2023-03-13T07:21:35;2.03;;;1.33;;
21593;SDS011;10959;51.328;7.322;2023-03-13T07:24:02;1.40;;;1.20;;
21593;SDS011;10959;51.328;7.322;2023-03-13T07:26:28;2.70;;;1.70;;
21593;SDS011;10959;51.328;7.322;2023-03-13T07:28:55;1.93;;;1.73;;
21593;SDS011;10959;51.328;7.322;2023-03-13T07:31:21;1.43;;;1.33;;
21593;SDS011;10959;51.328;7.322;2023-03-13T07:33:48;2.07;;;1.40;;
21593;SDS011;10959;51.328;7.322;2023-03-13T07:36:18;3.83;;;1.77;;
21593;SDS011;10959;51.328;7.322;2023-03-13T07:38:46;3.17;;;1.80;;
21593;SDS011;10959;51.328;7.322;2023-03-13T07:41:13;2.20;;;1.50;;
21593;SDS011;10959;51.328;7.322;2023-03-13T07:43:39;2.40;;;1.43;;
21593;SDS011;10959;51.328;7.322;2023-03-13T07:46:07;3.00;;;1.73;;
21593;SDS011;10959;51.328;7.322;2023-03-13T07:48:36;2.33;;;1.70;;
21593;SDS011;10959;51.328;7.322;2023-03-13T07:51:04;2.03;;;1.80;;
21593;SDS011;10959;51.328;7.322;2023-03-13T07:53:34;2.70;;;1.73;;
21593;SDS011;10959;51.328;7.322;2023-03-13T07:56:01;3.17;;;2.23;;
21593;SDS011;10959;51.328;7.322;2023-03-13T07:58:29;3.43;;;2.37;;
21593;SDS011;10959;51.328;7.322;2023-03-13T08:00:57;2.97;;;2.00;;
21593;SDS011;10959;51.328;7.322;2023-03-13T08:03:24;3.77;;;2.10;;
21593;SDS011;10959;51.328;7.322;2023-03-13T08:05:57;2.80;;;1.90;;
21593;SDS011;10959;51.328;7.322;2023-03-13T08:08:24;3.43;;;1.90;;
21593;SDS011;10959;51.328;7.322;2023-03-13T08:10:52;3.03;;;2.03;;
21593;SDS011;10959;51.328;7.322;2023-03-13T08:13:18;3.57;;;2.13;;
21593;SDS011;10959;51.328;7.322;2023-03-13T08:15:45;3.43;;;2.20;;
21593;SDS011;10959;51.328;7.322;2023-03-13T08:18:11;3.90;;;2.20;;
21593;SDS011;10959;51.328;7.322;2023-03-13T08:20:38;2.97;;;1.87;;
21593;SDS011;10959;51.328;7.322;2023-03-13T08:23:04;5.37;;;2.30;;
21593;SDS011;10959;51.328;7.322;2023-03-13T08:25:31;2.53;;;1.70;;
21593;SDS011;10959;51.328;7.322;2023-03-13T08:27:59;2.67;;;1.87;;
21593;SDS011;10959;51.328;7.322;2023-03-13T08:30:26;6.33;;;2.47;;
21593;SDS011;10959;51.328;7.322;2023-03-13T08:32:52;2.77;;;1.90;;
21593;SDS011;10959;51.328;7.322;2023-03-13T08:35:19;4.37;;;2.23;;
21593;SDS011;10959;51.328;7.322;2023-03-13T08:37:45;4.70;;;2.23;;
21593;SDS011;10959;51.328;7.322;2023-03-13T08:40:12;4.13;;;2.33;;
21593;SDS011;10959;51.328;7.322;2023-03-13T08:42:38;5.30;;;3.20;;
21593;SDS011;10959;51.328;7.322;2023-03-13T08:45:07;3.80;;;2.20;;
21593;SDS011;10959;51.328;7.322;2023-03-13T08:47:34;6.17;;;2.40;;
21593;SDS011;10959;51.328;7.322;2023-03-13T08:50:01;5.80;;;2.70;;
21593;SDS011;10959;51.328;7.322;2023-03-13T08:52:28;4.50;;;2.40;;
21593;SDS011;10959;51.328;7.322;2023-03-13T08:54:54;6.50;;;2.57;;
21593;SDS011;10959;51.328;7.322;2023-03-13T08:57:21;2.97;;;2.33;;
21593;SDS011;10959;51.328;7.322;2023-03-13T08:59:48;5.43;;;2.47;;
21593;SDS011;10959;51.328;7.322;2023-03-13T09:02:16;6.40;;;2.40;;
21593;SDS011;10959;51.328;7.322;2023-03-13T09:04:45;6.13;;;2.47;;
21593;SDS011;10959;51.328;7.322;2023-03-13T09:07:12;3.40;;;2.40;;
21593;SDS011;10959;51.328;7.322;2023-03-13T09:09:39;5.07;;;2.67;;
21593;SDS011;10959;51.328;7.322;2023-03-13T09:12:06;6.57;;;3.03;;
21593;SDS011;10959;51.328;7.322;2023-03-13T09:14:33;3.80;;;3.00;;
21593;SDS011;10959;51.328;7.322;2023-03-13T09:17:00;3.53;;;2.20;;
21593;SDS011;10959;51.328;7.322;2023-03-13T09:19:28;4.87;;;2.50;;
21593;SDS011;10959;51.328;7.322;2023-03-13T09:21:55;4.87;;;2.90;;
21593;SDS011;10959;51.328;7.322;2023-03-13T09:24:21;8.53;;;3.13;;
21593;SDS011;10959;51.328;7.322;2023-03-13T09:26:48;3.83;;;2.80;;
21593;SDS011;10959;51.328;7.322;2023-03-13T09:29:14;4.47;;;2.33;;
21593;SDS011;10959;51.328;7.322;2023-03-13T09:31:41;6.23;;;2.90;;
21593;SDS011;10959;51.328;7.322;2023-03-13T09:34:08;3.93;;;2.70;;
21593;SDS011;10959;51.328;7.322;2023-03-13T09:36:35;4.73;;;2.73;;
21593;SDS011;10959;51.328;7.322;2023-03-13T09:39:02;2.60;;;2.13;;
21593;SDS011;10959;51.328;7.322;2023-03-13T09:41:31;5.00;;;2.73;;
21593;SDS011;10959;51.328;7.322;2023-03-13T09:44:03;4.93;;;2.70;;
21593;SDS011;10959;51.328;7.322;2023-03-13T09:46:36;5.23;;;2.40;;
21593;SDS011;10959;51.328;7.322;2023-03-13T09:49:09;4.67;;;2.53;;
21593;SDS011;10959;51.328;7.322;2023-03-13T09:51:41;5.57;;;2.70;;
21593;SDS011;10959;51.328;7.322;2023-03-13T09:54:16;4.97;;;3.00;;
21593;SDS011;10959;51.328;7.322;2023-03-13T09:56:50;3.30;;;2.27;;
21593;SDS011;10959;51.328;7.322;2023-03-13T09:59:21;2.93;;;2.20;;
21593;SDS011;10959;51.328;7.322;2023-03-13T10:01:53;3.70;;;2.60;;
21593;SDS011;10959;51.328;7.322;2023-03-13T10:04:26;3.70;;;2.60;;
21593;SDS011;10959;51.328;7.322;2023-03-13T10:06:57;3.27;;;2.67;;
21593;SDS011;10959;51.328;7.322;2023-03-13T10:09:25;4.73;;;2.13;;
21593;SDS011;10959;51.328;7.322;2023-03-13T10:11:55;5.17;;;2.53;;
21593;SDS011;10959;51.328;7.322;2023-03-13T10:14:29;4.60;;;2.37;;
21593;SDS011;10959;51.328;7.322;2023-03-13T10:17:01;3.67;;;2.17;;
21593;SDS011;10959;51.328;7.322;2023-03-13T10:19:33;4.00;;;2.40;;
21593;SDS011;10959;51.328;7.322;2023-03-13T10:22:04;4.00;;;2.13;;
21593;SDS011;10959;51.328;7.322;2023-03-13T10:24:39;2.30;;;2.10;;
21593;SDS011;10959;51.328;7.322;2023-03-13T10:27:12;4.27;;;2.20;;
21593;SDS011;10959;51.328;7.322;2023-03-13T10:29:40;2.63;;;2.00;;
21593;SDS011;10959;51.328;7.322;2023-03-13T10:32:08;2.27;;;1.60;;
21593;SDS011;10959;51.328;7.322;2023-03-13T10:34:44;5.47;;;1.60;;
21593;SDS011;10959;51.328;7.322;2023-03-13T10:37:18;2.07;;;1.60;;
21593;SDS011;10959;51.328;7.322;2023-03-13T10:39:46;1.63;;;1.33;;
21593;SDS011;10959;51.328;7.322;2023-03-13T10:42:17;3.37;;;1.50;;
21593;SDS011;10959;51.328;7.322;2023-03-13T10:44:46;2.00;;;1.40;;
21593;SDS011;10959;51.328;7.322;2023-03-13T10:47:13;3.70;;;1.20;;
21593;SDS011;10959;51.328;7.322;2023-03-13T10:49:45;2.47;;;1.10;;
21593;SDS011;10959;51.328;7.322;2023-03-13T10:52:28;1.30;;;1.20;;
21593;SDS011;10959;51.328;7.322;2023-03-13T10:55:09;2.70;;;1.00;;
21593;SDS011;10959;51.328;7.322;2023-03-13T10:57:37;1.73;;;1.20;;
21593;SDS011;10959;51.328;7.322;2023-03-13T11:00:22;1.67;;;1.00;;
21593;SDS011;10959;51.328;7.322;2023-03-13T11:02:58;1.80;;;1.10;;
21593;SDS011;10959;51.328;7.322;2023-03-13T11:05:28;2.00;;;1.20;;
21593;SDS011;10959;51.328;7.322;2023-03-13T11:08:19;1.20;;;0.80;;
21593;SDS011;10959;51.328;7.322;2023-03-13T11:10:57;1.40;;;1.10;;
21593;SDS011;10959;51.328;7.322;2023-03-13T11:13:33;1.43;;;0.90;;
21593;SDS011;10959;51.328;7.322;2023-03-13T11:16:13;1.43;;;0.93;;
21593;SDS011;10959;51.328;7.322;2023-03-13T11:18:51;2.27;;;0.87;;
21593;SDS011;10959;51.328;7.322;2023-03-13T11:21:34;1.50;;;1.20;;
21593;SDS011;10959;51.328;7.322;2023-03-13T11:24:09;1.37;;;1.00;;
21593;SDS011;10959;51.328;7.322;2023-03-13T11:26:41;1.40;;;1.00;;
21593;SDS011;10959;51.328;7.322;2023-03-13T11:29:17;3.00;;;1.10;;
21593;SDS011;10959;51.328;7.322;2023-03-13T11:31:53;1.80;;;0.90;;
21593;SDS011;10959;51.328;7.322;2023-03-13T11:34:25;1.07;;;0.67;;
21593;SDS011;10959;51.328;7.322;2023-03-13T11:37:01;2.50;;;1.33;;
21593;SDS011;10959;51.328;7.322;2023-03-13T11:39:39;2.70;;;1.17;;
21593;SDS011;10959;51.328;7.322;2023-03-13T11:45:22;1.23;;;0.73;;
21593;SDS011;10959;51.328;7.322;2023-03-13T11:48:16;1.40;;;0.87;;
21593;SDS011;10959;51.328;7.322;2023-03-13T11:50:57;1.60;;;1.07;;
21593;SDS011;10959;51.328;7.322;2023-03-13T11:53:39;1.93;;;0.80;;
21593;SDS011;10959;51.328;7.322;2023-03-13T11:56:19;1.27;;;0.80;;
21593;SDS011;10959;51.328;7.322;2023-03-13T11:58:52;1.77;;;0.77;;
21593;SDS011;10959;51.328;7.322;2023-03-13T12:01:29;0.97;;;0.80;;
21593;SDS011;10959;51.328;7.322;2023-03-13T12:04:00;1.93;;;0.90;;
21593;SDS011;10959;51.328;7.322;2023-03-13T12:06:32;2.27;;;0.90;;
21593;SDS011;10959;51.328;7.322;2023-03-13T12:09:02;1.87;;;0.97;;
21593;SDS011;10959;51.328;7.322;2023-03-13T12:11:37;1.83;;;0.90;;
21593;SDS011;10959;51.328;7.322;2023-03-13T12:14:08;2.33;;;0.97;;
21593;SDS011;10959;51.328;7.322;2023-03-13T12:16:39;5.43;;;1.00;;
21593;SDS011;10959;51.328;7.322;2023-03-13T12:19:10;2.63;;;1.00;;
21593;SDS011;10959;51.328;7.322;2023-03-13T12:21:41;1.63;;;0.53;;
21593;SDS011;10959;51.328;7.322;2023-03-13T12:24:14;2.63;;;0.90;;
21593;SDS011;10959;51.328;7.322;2023-03-13T12:26:50;1.00;;;0.60;;
21593;SDS011;10959;51.328;7.322;2023-03-13T12:29:24;2.40;;;0.50;;
21593;SDS011;10959;51.328;7.322;2023-03-13T12:31:58;0.70;;;0.50;;
21593;SDS011;10959;51.328;7.322;2023-03-13T12:34:32;0.63;;;0.53;;
21593;SDS011;10959;51.328;7.322;2023-03-13T12:37:06;2.73;;;0.50;;
21593;SDS011;10959;51.328;7.322;2023-03-13T12:39:39;1.33;;;0.60;;
21593;SDS011;10959;51.328;7.322;2023-03-13T12:42:12;1.30;;;0.50;;
21593;SDS011;10959;51.328;7.322;2023-03-13T12:44:46;1.33;;;0.70;;
21593;SDS011;10959;51.328;7.322;2023-03-13T12:47:15;1.60;;;0.60;;
21593;SDS011;10959;51.328;7.322;2023-03-13T12:52:47;2.00;;;0.70;;
21593;SDS011;10959;51.328;7.322;2023-03-13T12:55:29;1.77;;;0.53;;
21593;SDS011;10959;51.328;7.322;2023-03-13T12:58:14;1.07;;;0.70;;
21593;SDS011;10959;51.328;7.322;2023-03-13T13:00:54;1.03;;;0.60;;
21593;SDS011;10959;51.328;7.322;2023-03-13T13:03:29;2.60;;;0.70;;
21593;SDS011;10959;51.328;7.322;2023-03-13T13:06:06;2.77;;;0.70;;
21593;SDS011;10959;51.328;7.322;2023-03-13T13:08:36;2.23;;;0.77;;
21593;SDS011;10959;51.328;7.322;2023-03-13T13:17:46;1.97;;;0.60;;
21593;SDS011;10959;51.328;7.322;2023-03-13T13:20:29;1.23;;;0.50;;
21593;SDS011;10959;51.328;7.322;2023-03-13T13:32:36;1.77;;;0.90;;
21593;SDS011;10959;51.328;7.322;2023-03-13T13:40:59;3.20;;;0.80;;
21593;SDS011;10959;51.328;7.322;2023-03-13T13:43:28;2.83;;;1.03;;
21593;SDS011;10959;51.328;7.322;2023-03-13T13:45:58;3.43;;;0.80;;
21593;SDS011;10959;51.328;7.322;2023-03-13T13:48:28;0.83;;;0.50;;
21593;SDS011;10959;51.328;7.322;2023-03-13T13:51:20;2.00;;;0.60;;
21593;SDS011;10959;51.328;7.322;2023-03-13T13:53:53;5.23;;;0.80;;
21593;SDS011;10959;51.328;7.322;2023-03-13T13:56:28;5.87;;;0.80;;
21593;SDS011;10959;51.328;7.322;2023-03-13T13:59:04;2.27;;;0.90;;
21593;SDS011;10959;51.328;7.322;2023-03-13T14:01:41;2.33;;;0.80;;
21593;SDS011;10959;51.328;7.322;2023-03-13T14:04:12;2.10;;;0.70;;
21593;SDS011;10959;51.328;7.322;2023-03-13T14:06:41;4.93;;;0.70;;
21593;SDS011;10959;51.328;7.322;2023-03-13T14:09:14;2.93;;;0.93;;
21593;SDS011;10959;51.328;7.322;2023-03-13T14:11:53;2.83;;;0.73;;
21593;SDS011;10959;51.328;7.322;2023-03-13T14:14:20;2.10;;;0.70;;
21593;SDS011;10959;51.328;7.322;2023-03-13T14:16:48;5.30;;;0.90;;
21593;SDS011;10959;51.328;7.322;2023-03-13T14:19:24;2.77;;;0.70;;
21593;SDS011;10959;51.328;7.322;2023-03-13T14:21:56;2.27;;;0.90;;
21593;SDS011;10959;51.328;7.322;2023-03-13T14:24:24;4.63;;;0.77;;
21593;SDS011;10959;51.328;7.322;2023-03-13T14:26:51;2.13;;;0.60;;
21593;SDS011;10959;51.328;7.322;2023-03-13T14:29:18;2.07;;;0.90;;
21593;SDS011;10959;51.328;7.322;2023-03-13T14:31:51;1.93;;;0.90;;
21593;SDS011;10959;51.328;7.322;2023-03-13T14:34:19;4.73;;;1.07;;
21593;SDS011;10959;51.328;7.322;2023-03-13T14:36:47;3.60;;;0.63;;
21593;SDS011;10959;51.328;7.322;2023-03-13T14:39:16;2.63;;;0.90;;
21593;SDS011;10959;51.328;7.322;2023-03-13T14:41:45;4.37;;;0.87;;
21593;SDS011;10959;51.328;7.322;2023-03-13T14:44:15;3.10;;;0.73;;
21593;SDS011;10959;51.328;7.322;2023-03-13T14:46:47;2.50;;;0.90;;
21593;SDS011;10959;51.328;7.322;2023-03-13T14:49:15;3.97;;;1.23;;
21593;SDS011;10959;51.328;7.322;2023-03-13T14:51:44;3.17;;;1.07;;
21593;SDS011;10959;51.328;7.322;2023-03-13T14:54:22;1.77;;;0.60;;
21593;SDS011;10959;51.328;7.322;2023-03-13T14:57:00;3.13;;;0.80;;
21593;SDS011;10959;51.328;7.322;2023-03-13T14:59:29;6.30;;;0.87;;
21593;SDS011;10959;51.328;7.322;2023-03-13T15:01:58;1.23;;;0.80;;
21593;SDS011;10959;51.328;7.322;2023-03-13T15:07:14;1.07;;;0.63;;
21593;SDS011;10959;51.328;7.322;2023-03-13T15:09:43;2.57;;;0.90;;
21593;SDS011;10959;51.328;7.322;2023-03-13T15:12:12;3.80;;;1.10;;
21593;SDS011;10959;51.328;7.322;2023-03-13T15:14:40;2.63;;;0.90;;
21593;SDS011;10959;51.328;7.322;2023-03-13T15:17:10;2.57;;;1.17;;
21593;SDS011;10959;51.328;7.322;2023-03-13T15:19:39;1.10;;;0.90;;
21593;SDS011;10959;51.328;7.322;2023-03-13T15:22:09;1.67;;;1.00;;
21593;SDS011;10959;51.328;7.322;2023-03-13T15:24:38;1.90;;;0.80;;
21593;SDS011;10959;51.328;7.322;2023-03-13T15:27:09;3.20;;;1.20;;
21593;SDS011;10959;51.328;7.322;2023-03-13T15:29:40;3.40;;;1.20;;